Time;durP1;ratioP1;P1;durP2;ratioP2;P2;SDS_P1;SDS_P2;PMS_P1;PMS_P2;Temp;Humidity;BMP_temperature;BMP_pressure;BME280_temperature;BME280_humidity;BME280_pressure;Samples;Min_cycle;Max_cycle;Signal;HPM_P1;HPM_P2
2022/01/03 00:01:16;;;;;;;8.68;2.38;;;8.20;99.90;;;;;;5075840;28;20248;-93
2022/01/03 00:04:01;;;;;;;11.50;2.30;;;8.40;99.90;;;;;;5061195;28;20162;-92
2022/01/03 00:06:45;;;;;;;10.90;2.55;;;8.40;99.90;;;;;;5046809;28;20443;-93
2022/01/03 00:09:29;;;;;;;;;;;8.40;99.90;;;;;;5076148;28;20082;-94
2022/01/03 00:12:13;;;;;;;11.95;3.40;;;8.50;99.90;;;;;;5060540;28;19982;-93
2022/01/03 00:14:59;;;;;;;9.18;1.90;;;8.40;99.90;;;;;;5075231;28;20074;-93
2022/01/03 00:17:44;;;;;;;13.27;2.42;;;8.50;99.90;;;;;;5060475;28;20512;-91
2022/01/03 00:20:29;;;;;;;12.32;2.30;;;8.60;99.90;;;;;;5074937;28;20059;-92
2022/01/03 00:23:16;;;;;;;14.02;2.67;;;8.60;99.90;;;;;;5046225;28;20040;-92
2022/01/03 00:26:02;;;;;;;12.38;2.40;;;8.70;99.90;;;;;;5075178;28;20446;-93
2022/01/03 00:29:10;;;;;;;14.40;2.47;;;8.70;99.90;;;;;;5059662;28;20057;-93
2022/01/03 00:31:57;;;;;;;16.77;2.70;;;8.70;99.90;;;;;;5055735;28;20106;-93
2022/01/03 00:34:41;;;;;;;15.48;3.13;;;8.80;99.90;;;;;;5074172;28;20070;-92
2022/01/03 00:37:27;;;;;;;16.23;2.65;;;8.80;99.90;;;;;;5060616;28;20035;-92
2022/01/03 00:40:13;;;;;;;16.50;2.40;;;8.80;99.90;;;;;;5060027;28;20042;-92
2022/01/03 00:42:57;;;;;;;10.85;2.50;;;8.90;99.90;;;;;;5075230;28;20069;-93
2022/01/03 00:45:42;;;;;;;19.52;2.90;;;8.80;99.90;;;;;;5044847;28;20044;-91
2022/01/03 00:48:26;;;;;;;16.65;3.08;;;8.90;99.90;;;;;;5059882;28;20035;-94
2022/01/03 00:51:14;;;;;;;20.52;3.17;;;8.90;99.90;;;;;;5059909;28;20093;-92
2022/01/03 00:53:59;;;;;;;18.58;3.08;;;8.80;99.90;;;;;;5059215;28;20517;-94
2022/01/03 00:56:48;;;;;;;12.95;2.65;;;8.80;99.90;;;;;;5073594;28;20075;-93
2022/01/03 00:59:38;;;;;;;12.77;2.35;;;8.90;99.90;;;;;;5058696;28;20090;-93
2022/01/03 01:02:27;;;;;;;23.45;3.95;;;8.80;99.90;;;;;;5074166;28;20062;-93
2022/01/03 01:05:11;;;;;;;23.60;3.92;;;8.90;99.90;;;;;;5059357;28;20518;-91
2022/01/03 01:07:56;;;;;;;23.83;3.38;;;8.90;99.90;;;;;;5058777;28;20046;-91
2022/01/03 01:10:41;;;;;;;15.38;3.00;;;8.90;99.90;;;;;;5073331;28;20048;-93
2022/01/03 01:13:25;;;;;;;20.60;4.15;;;8.90;99.90;;;;;;5058690;28;20074;-91
2022/01/03 01:16:10;;;;;;;25.60;4.65;;;8.90;99.90;;;;;;5058813;28;20035;-91
2022/01/03 01:18:54;;;;;;;;;;;8.90;99.90;;;;;;5073896;28;20146;-90
2022/01/03 01:21:38;;;;;;;17.48;3.67;;;9.00;99.90;;;;;;5057887;28;19924;-93
2022/01/03 01:24:24;;;;;;;19.70;4.20;;;8.80;99.90;;;;;;5073571;28;20459;-89
2022/01/03 01:30:12;;;;;;;20.83;4.00;;;8.90;99.90;;;;;;5073399;28;20071;-90
2022/01/03 01:33:11;;;;;;;17.65;3.13;;;8.90;99.90;;;;;;5073558;28;20140;-91
2022/01/03 01:36:00;;;;;;;24.30;3.83;;;8.90;99.90;;;;;;5073328;28;20043;-90
2022/01/03 01:38:49;;;;;;;22.30;3.60;;;8.90;99.90;;;;;;5072011;28;20563;-92
2022/01/03 01:41:38;;;;;;;22.33;4.75;;;8.90;99.90;;;;;;5057546;28;20400;-89
2022/01/03 01:44:24;;;;;;;23.23;4.00;;;8.90;99.90;;;;;;5073014;28;20059;-89
2022/01/03 01:47:09;;;;;;;17.60;4.63;;;9.10;99.90;;;;;;5072944;28;20082;-91
2022/01/03 01:49:55;;;;;;;20.55;3.03;;;9.00;99.90;;;;;;5057199;28;20421;-90
2022/01/03 01:52:39;;;;;;;25.83;4.20;;;9.10;99.90;;;;;;5072424;28;20110;-89
2022/01/03 01:55:23;;;;;;;;;;;9.10;99.90;;;;;;5058512;28;20397;-90
2022/01/03 01:58:28;;;;;;;17.80;2.92;;;9.10;99.90;;;;;;5073030;28;20383;-91
2022/01/03 02:01:12;;;;;;;;;;;9.20;99.90;;;;;;5073483;28;20054;-92
2022/01/03 02:04:06;;;;;;;18.48;4.15;;;9.20;99.90;;;;;;5057223;28;19919;-90
2022/01/03 02:06:56;;;;;;;23.52;5.20;;;9.20;99.90;;;;;;5072270;28;20066;-89
2022/01/03 02:09:52;;;;;;;23.98;4.20;;;9.20;99.90;;;;;;5057381;28;20534;-90
2022/01/03 02:12:40;;;;;;;18.80;3.47;;;9.30;99.90;;;;;;5072341;28;20515;-89
2022/01/03 02:15:24;;;;;;;16.70;4.18;;;9.30;99.90;;;;;;5072634;28;20392;-91
2022/01/03 02:18:08;;;;;;;23.73;4.85;;;9.20;99.90;;;;;;5031728;28;20044;-89
2022/01/03 02:20:53;;;;;;;23.17;4.53;;;9.20;99.90;;;;;;5052042;28;20088;-88
2022/01/03 02:23:38;;;;;;;26.83;4.78;;;9.20;99.90;;;;;;5037090;28;20127;-90
2022/01/03 02:26:22;;;;;;;23.60;4.05;;;9.20;99.90;;;;;;5052462;28;20036;-91
2022/01/03 02:29:06;;;;;;;20.38;3.30;;;9.20;99.90;;;;;;5037286;28;20102;-89
2022/01/03 02:31:50;;;;;;;15.75;4.00;;;9.20;99.90;;;;;;5051811;28;20451;-89
2022/01/03 02:34:37;;;;;;;18.15;3.85;;;9.20;99.90;;;;;;5052228;28;20143;-90
2022/01/03 02:37:23;;;;;;;21.55;3.88;;;9.20;99.90;;;;;;5037343;28;20044;-89
2022/01/03 02:40:10;;;;;;;26.33;3.95;;;9.20;99.90;;;;;;5052206;28;20040;-89
2022/01/03 02:42:54;;;;;;;29.80;3.85;;;9.10;99.90;;;;;;5037004;28;20040;-89
2022/01/03 02:45:39;;;;;;;17.60;3.95;;;9.10;99.90;;;;;;5037073;28;20040;-88
2022/01/03 02:48:23;;;;;;;21.30;5.10;;;9.10;99.90;;;;;;5037130;28;20122;-88
2022/01/03 02:51:07;;;;;;;23.15;4.38;;;9.00;99.90;;;;;;5039461;28;20044;-88
2022/01/03 02:53:51;;;;;;;19.63;4.05;;;9.10;99.90;;;;;;5055465;28;20044;-88
2022/01/03 02:56:35;;;;;;;21.85;4.50;;;9.10;99.90;;;;;;5055886;28;20155;-89
2022/01/03 02:59:20;;;;;;;20.75;4.40;;;9.10;99.90;;;;;;5055835;28;20055;-88
2022/01/03 03:02:05;;;;;;;28.10;3.97;;;9.10;99.90;;;;;;5040324;28;20523;-88
2022/01/03 03:04:57;;;;;;;18.00;3.97;;;9.10;99.90;;;;;;5040384;28;20075;-88
2022/01/03 03:07:41;;;;;;;25.00;3.80;;;9.10;99.90;;;;;;5040539;28;20040;-90
2022/01/03 03:10:26;;;;;;;25.10;4.15;;;9.00;99.90;;;;;;5055432;28;20086;-88
2022/01/03 03:13:10;;;;;;;28.80;4.32;;;9.10;99.90;;;;;;5055500;28;20116;-89
2022/01/03 03:15:54;;;;;;;21.48;3.67;;;9.00;99.90;;;;;;5054971;28;20619;-88
2022/01/03 03:18:43;;;;;;;26.98;5.22;;;9.00;99.90;;;;;;5040258;28;20171;-87
2022/01/03 03:21:30;;;;;;;19.58;3.60;;;9.10;99.90;;;;;;5039953;28;20156;-87
2022/01/03 03:24:14;;;;;;;23.55;4.57;;;9.00;99.90;;;;;;5026483;28;20044;-88
2022/01/03 03:26:58;;;;;;;;;;;9.10;99.90;;;;;;5040155;28;20043;-88
2022/01/03 03:29:48;;;;;;;25.83;3.97;;;9.00;99.90;;;;;;5040115;28;19978;-89
2022/01/03 03:32:32;;;;;;;24.45;4.78;;;8.90;99.90;;;;;;5055203;28;20104;-89
2022/01/03 03:35:17;;;;;;;22.67;4.45;;;8.90;99.90;;;;;;5040065;28;20397;-87
2022/01/03 03:38:01;;;;;;;32.22;5.20;;;8.90;99.90;;;;;;5039648;28;20505;-89
2022/01/03 03:40:47;;;;;;;28.00;5.10;;;8.90;99.90;;;;;;5040202;28;20051;-88
2022/01/03 03:43:31;;;;;;;23.02;4.18;;;8.80;99.90;;;;;;5040297;28;20044;-88
2022/01/03 03:46:15;;;;;;;29.58;4.65;;;8.90;99.90;;;;;;5041014;28;20040;-88
2022/01/03 03:48:59;;;;;;;27.00;5.13;;;8.80;99.90;;;;;;5039252;28;20401;-87
2022/01/03 03:51:43;;;;;;;;;;;8.80;99.90;;;;;;5026073;28;20052;-87
2022/01/03 03:54:35;;;;;;;30.67;5.53;;;8.90;99.90;;;;;;5054861;28;19931;-87
2022/01/03 03:57:19;;;;;;;25.77;4.40;;;8.80;99.90;;;;;;5039722;28;20044;-87
2022/01/03 04:00:13;;;;;;;22.73;4.28;;;8.80;99.90;;;;;;5038972;28;20090;-86
2022/01/03 04:02:57;;;;;;;23.08;4.95;;;8.80;99.90;;;;;;5053413;28;20136;-87
2022/01/03 04:05:41;;;;;;;25.42;4.47;;;8.80;99.90;;;;;;5054480;28;20397;-87
2022/01/03 04:08:25;;;;;;;;;;;8.90;99.90;;;;;;5039717;28;20044;-87
2022/01/03 04:11:09;;;;;;;24.67;4.47;;;9.00;99.90;;;;;;5038817;28;19923;-87
2022/01/03 04:13:53;;;;;;;20.63;4.35;;;8.90;99.90;;;;;;5054204;28;20036;-87
2022/01/03 04:16:39;;;;;;;24.88;4.55;;;8.90;99.90;;;;;;5039226;28;20103;-87
2022/01/03 04:19:23;;;;;;;21.85;5.05;;;9.00;99.90;;;;;;5039131;28;20067;-87
2022/01/03 04:22:08;;;;;;;27.33;3.58;;;9.00;99.90;;;;;;5038606;28;20413;-87
2022/01/03 04:24:53;;;;;;;25.05;4.95;;;8.90;99.90;;;;;;5039147;28;20082;-86
2022/01/03 04:27:38;;;;;;;26.88;4.13;;;9.00;99.90;;;;;;5054216;28;20521;-87
2022/01/03 04:30:22;;;;;;;28.55;5.05;;;8.90;99.90;;;;;;5038974;28;20040;-86
2022/01/03 04:33:07;;;;;;;28.75;5.22;;;8.90;99.90;;;;;;5038478;28;20048;-86
2022/01/03 04:35:51;;;;;;;22.70;4.55;;;8.90;99.90;;;;;;5053888;28;20099;-86
2022/01/03 04:38:39;;;;;;;23.33;4.78;;;8.90;99.90;;;;;;5054049;28;20166;-86
2022/01/03 04:41:23;;;;;;;22.60;4.53;;;8.90;99.90;;;;;;5038906;28;20178;-86
2022/01/03 04:44:08;;;;;;;29.83;5.25;;;9.00;99.90;;;;;;5053358;28;20120;-86
2022/01/03 04:46:53;;;;;;;24.23;4.95;;;9.00;99.90;;;;;;5038779;28;20082;-86
2022/01/03 04:49:37;;;;;;;27.27;4.72;;;9.00;99.90;;;;;;5038574;28;20036;-86
2022/01/03 04:52:21;;;;;;;;;;;9.10;99.90;;;;;;5038435;28;20089;-87
2022/01/03 04:55:05;;;;;;;24.05;5.80;;;9.00;99.90;;;;;;5024032;28;19923;-88
2022/01/03 04:57:53;;;;;;;24.40;4.75;;;9.00;99.90;;;;;;5038386;28;20485;-86
2022/01/03 05:00:38;;;;;;;23.75;5.72;;;9.00;99.90;;;;;;5053584;28;20153;-86
2022/01/03 05:03:22;;;;;;;31.52;6.07;;;9.00;99.90;;;;;;5052893;28;20040;-86
2022/01/03 05:06:06;;;;;;;29.77;5.15;;;9.00;99.90;;;;;;5052900;28;20044;-87
2022/01/03 05:08:50;;;;;;;34.22;5.22;;;9.10;99.90;;;;;;5053279;28;20060;-87
2022/01/03 05:11:34;;;;;;;29.25;4.75;;;9.00;99.90;;;;;;5053217;28;20103;-87
2022/01/03 05:14:18;;;;;;;;;;;9.00;99.90;;;;;;5037156;28;20059;-86
2022/01/03 05:17:03;;;;;;;28.00;6.15;;;9.00;99.90;;;;;;5052771;28;20019;-86
2022/01/03 05:19:47;;;;;;;28.05;4.78;;;9.00;99.90;;;;;;5053002;28;20091;-85
2022/01/03 05:22:32;;;;;;;29.35;5.85;;;9.00;99.90;;;;;;5038026;28;20071;-86
2022/01/03 05:25:16;;;;;;;29.50;5.35;;;9.10;99.90;;;;;;5052565;28;20067;-86
2022/01/03 05:28:00;;;;;;;;;;;9.20;99.90;;;;;;5038284;28;20462;-87
2022/01/03 05:30:44;;;;;;;39.83;6.38;;;9.00;99.90;;;;;;5052822;28;19919;-86
2022/01/03 05:33:29;;;;;;;29.95;5.55;;;9.00;99.90;;;;;;5037804;28;20147;-86
2022/01/03 05:36:15;;;;;;;29.17;5.07;;;9.00;99.90;;;;;;5037253;28;20581;-86
2022/01/03 05:39:00;;;;;;;44.10;8.15;;;9.00;99.90;;;;;;5052931;28;20100;-85
2022/01/03 05:41:44;;;;;;;;;;;9.00;99.90;;;;;;5053151;28;20234;-86
2022/01/03 05:44:28;;;;;;;31.35;5.13;;;9.10;99.90;;;;;;5052254;28;19973;-86
2022/01/03 05:47:12;;;;;;;22.98;6.22;;;8.90;99.90;;;;;;5052281;28;20090;-86
2022/01/03 05:49:59;;;;;;;33.47;4.60;;;9.00;99.90;;;;;;5037647;28;20483;-86
2022/01/03 05:52:44;;;;;;;25.52;5.10;;;8.90;99.90;;;;;;5052438;28;20039;-86
2022/01/03 05:55:29;;;;;;;28.20;5.15;;;9.00;99.90;;;;;;5052124;28;20082;-86
2022/01/03 05:58:13;;;;;;;32.53;5.80;;;9.00;99.90;;;;;;5036973;28;20575;-86
2022/01/03 06:00:59;;;;;;;27.85;5.00;;;9.00;99.90;;;;;;5052669;28;20056;-86
2022/01/03 06:03:44;;;;;;;36.05;7.15;;;9.00;99.90;;;;;;5052548;28;20048;-86
2022/01/03 06:06:53;;;;;;;32.03;4.95;;;9.00;99.90;;;;;;5023017;28;20089;-85
2022/01/03 06:09:37;;;;;;;24.40;5.43;;;8.90;99.90;;;;;;5052381;28;20072;-86
2022/01/03 06:12:21;;;;;;;30.15;5.63;;;8.90;99.90;;;;;;5036833;28;20067;-85
2022/01/03 06:15:05;;;;;;;34.50;5.47;;;9.00;99.90;;;;;;5037328;28;20043;-86
2022/01/03 06:17:51;;;;;;;27.92;4.25;;;8.90;99.90;;;;;;5037337;28;20122;-85
2022/01/03 06:20:37;;;;;;;28.15;5.20;;;9.00;99.90;;;;;;5037446;28;20044;-85
2022/01/03 06:23:22;;;;;;;29.02;6.32;;;9.00;99.90;;;;;;5036918;28;20080;-85
2022/01/03 06:26:06;;;;;;;;;;;9.00;99.90;;;;;;5040084;28;20044;-85
2022/01/03 06:28:50;;;;;;;36.60;7.13;;;8.90;99.90;;;;;;5056076;28;19920;-86
2022/01/03 06:31:35;;;;;;;32.72;6.55;;;8.90;99.90;;;;;;5040564;28;20531;-85
2022/01/03 06:34:20;;;;;;;27.23;4.80;;;8.90;99.90;;;;;;5055816;28;20389;-86
2022/01/03 06:37:04;;;;;;;30.48;5.13;;;8.90;99.90;;;;;;5026975;28;20106;-86
2022/01/03 06:39:48;;;;;;;32.85;5.25;;;8.90;99.90;;;;;;5040935;28;20044;-86
2022/01/03 06:42:32;;;;;;;;;;;8.90;99.90;;;;;;5055838;28;20094;-84
2022/01/03 06:45:17;;;;;;;25.50;4.75;;;8.90;99.90;;;;;;5055393;28;19915;-85
2022/01/03 06:48:00;;;;;;;;;;;8.90;99.90;;;;;;5071622;28;20112;-85
2022/01/03 06:50:45;;;;;;;34.38;5.32;;;8.80;99.90;;;;;;5060003;28;19962;-89
2022/01/03 06:53:29;;;;;;;34.30;5.13;;;8.80;99.90;;;;;;5074858;28;20038;-86
2022/01/03 06:56:14;;;;;;;25.60;4.97;;;8.80;99.90;;;;;;5075279;28;20417;-87
2022/01/03 06:58:58;;;;;;;26.58;5.70;;;8.90;99.90;;;;;;5059726;28;20031;-86
2022/01/03 07:01:43;;;;;;;20.27;4.25;;;8.80;99.90;;;;;;5059924;28;20079;-83
2022/01/03 07:04:27;;;;;;;27.00;4.95;;;8.90;99.90;;;;;;5052458;28;20036;-86
2022/01/03 07:07:12;;;;;;;30.52;5.43;;;8.80;99.90;;;;;;5073394;28;20087;-86
2022/01/03 07:09:56;;;;;;;27.17;4.85;;;8.90;99.90;;;;;;5057435;28;20370;-86
2022/01/03 07:12:40;;;;;;;;;;;8.90;99.90;;;;;;5074166;28;20460;-86
2022/01/03 07:21:33;;;;;;;27.65;5.15;;;8.90;99.90;;;;;;5070800;28;20054;-86
2022/01/03 07:24:18;;;;;;;30.88;5.35;;;8.80;99.90;;;;;;5058067;28;20128;-86
2022/01/03 07:27:02;;;;;;;;;;;8.80;99.90;;;;;;5053602;28;20419;-86
2022/01/03 07:29:48;;;;;;;26.63;5.10;;;8.80;99.90;;;;;;5059310;28;19958;-86
2022/01/03 07:32:32;;;;;;;33.88;6.13;;;8.80;99.90;;;;;;5038920;28;20462;-85
2022/01/03 07:35:23;;;;;;;24.13;4.53;;;8.80;99.90;;;;;;5058428;28;20531;-86
2022/01/03 07:38:08;;;;;;;28.65;6.05;;;8.80;99.90;;;;;;5044591;28;20048;-88
2022/01/03 07:40:52;;;;;;;30.90;6.07;;;8.80;99.90;;;;;;5058109;28;20052;-87
2022/01/03 07:43:39;;;;;;;;;;;8.80;99.90;;;;;;5073229;28;20042;-85
2022/01/03 07:46:23;;;;;;;31.23;6.60;;;8.80;99.90;;;;;;5043889;28;19919;-86
2022/01/03 07:49:07;;;;;;;22.45;4.53;;;8.80;99.90;;;;;;5073707;28;20059;-88
2022/01/03 07:51:52;;;;;;;39.47;7.40;;;8.80;99.90;;;;;;5046327;28;20452;-87
2022/01/03 07:54:36;;;;;;;33.33;6.75;;;8.80;99.90;;;;;;5058396;28;20487;-86
2022/01/03 07:57:19;;;;;;;;;;;8.90;99.90;;;;;;5074161;28;20031;-86
2022/01/03 08:00:06;;;;;;;31.73;4.80;;;8.90;99.90;;;;;;5057951;28;19920;-87
2022/01/03 08:02:50;;;;;;;35.65;5.85;;;8.90;99.90;;;;;;5045081;28;20040;-86
2022/01/03 08:05:34;;;;;;;26.77;5.20;;;9.00;99.90;;;;;;5073661;28;20071;-85
2022/01/03 08:08:18;;;;;;;33.40;4.72;;;9.10;99.90;;;;;;5074283;28;20044;-86
2022/01/03 08:11:04;;;;;;;30.25;5.38;;;9.10;99.90;;;;;;5045047;28;20054;-91
2022/01/03 08:13:48;;;;;;;28.92;5.60;;;9.10;99.90;;;;;;5044327;28;20523;-87
2022/01/03 08:16:33;;;;;;;21.58;4.70;;;9.20;99.90;;;;;;5056763;28;20047;-88
2022/01/03 08:19:17;;;;;;;34.67;5.72;;;9.20;99.90;;;;;;5073713;28;20518;-88
2022/01/03 08:22:02;;;;;;;25.00;5.47;;;9.20;99.90;;;;;;5057611;28;20192;-85
2022/01/03 08:24:47;;;;;;;34.17;5.40;;;9.30;99.90;;;;;;5071540;28;20044;-85
2022/01/03 08:27:31;;;;;;;;;;;9.30;99.90;;;;;;5054675;28;20153;-86
2022/01/03 08:30:15;;;;;;;36.50;6.18;;;9.30;99.90;;;;;;5073911;28;20445;-86
2022/01/03 08:33:00;;;;;;;28.33;4.38;;;9.30;99.90;;;;;;5064892;28;20051;-86
2022/01/03 08:35:44;;;;;;;25.83;5.05;;;9.40;99.90;;;;;;5078272;28;20499;-85
2022/01/03 08:38:29;;;;;;;29.95;5.40;;;9.40;99.90;;;;;;5053602;28;20039;-83
2022/01/03 08:41:13;;;;;;;20.40;4.57;;;9.40;99.90;;;;;;5063130;28;20044;-86
2022/01/03 08:43:57;;;;;;;22.80;5.38;;;9.40;99.90;;;;;;5058667;28;20047;-86
2022/01/03 08:46:41;;;;;;;30.83;6.85;;;9.40;99.90;;;;;;5073233;28;20055;-86
2022/01/03 08:49:25;;;;;;;;;;;9.40;99.90;;;;;;5058852;28;20047;-86
2022/01/03 08:52:10;;;;;;;23.30;4.97;;;9.50;99.90;;;;;;5071196;28;20375;-87
2022/01/03 08:54:55;;;;;;;34.10;5.80;;;9.50;99.90;;;;;;5043748;28;20109;-86
2022/01/03 08:57:41;;;;;;;30.27;4.57;;;9.40;99.90;;;;;;5056893;28;20043;-85
2022/01/03 09:00:26;;;;;;;30.55;4.78;;;9.60;99.90;;;;;;5058251;28;20502;-84
2022/01/03 09:03:10;;;;;;;25.17;5.72;;;9.50;99.90;;;;;;5058427;28;20048;-87
2022/01/03 09:05:55;;;;;;;33.65;5.78;;;9.50;99.90;;;;;;5072853;28;20223;-87
2022/01/03 09:08:39;;;;;;;29.75;5.07;;;9.60;99.90;;;;;;5072702;28;20039;-86
2022/01/03 09:11:23;;;;;;;;;;;9.70;99.90;;;;;;5073441;28;20047;-84
2022/01/03 09:14:08;;;;;;;32.33;6.65;;;9.60;99.90;;;;;;5057073;28;19962;-86
2022/01/03 09:16:52;;;;;;;29.80;5.15;;;9.60;99.90;;;;;;5037596;28;20401;-86
2022/01/03 09:19:37;;;;;;;25.55;4.43;;;9.60;99.90;;;;;;5070336;28;20059;-85
2022/01/03 09:22:27;;;;;;;19.48;4.43;;;9.60;99.90;;;;;;5071954;28;20060;-87
2022/01/03 09:31:07;;;;;;;30.45;5.55;;;9.60;99.90;;;;;;5052924;28;20110;-86
2022/01/03 09:33:52;;;;;;;;;;;9.60;99.90;;;;;;5052836;28;20091;-89
2022/01/03 09:36:36;;;;;;;23.55;4.30;;;9.60;99.90;;;;;;5052846;28;20422;-86
2022/01/03 09:39:22;;;;;;;28.85;4.70;;;9.60;99.90;;;;;;5052747;28;20098;-86
2022/01/03 09:42:11;;;;;;;31.13;4.57;;;9.60;99.90;;;;;;5052712;28;20531;-85
2022/01/03 09:44:58;;;;;;;32.45;5.13;;;9.70;99.90;;;;;;5053656;28;20089;-88
2022/01/03 09:47:44;;;;;;;24.15;5.60;;;9.70;99.90;;;;;;5053088;28;20059;-88
2022/01/03 09:50:32;;;;;;;22.90;4.15;;;9.70;99.90;;;;;;5058124;28;20432;-86
2022/01/03 09:53:20;;;;;;;23.48;4.88;;;9.70;99.90;;;;;;5072671;28;20400;-90
2022/01/03 09:56:05;;;;;;;23.23;5.07;;;9.70;99.90;;;;;;5072488;28;20039;-84
2022/01/03 09:58:50;;;;;;;29.13;4.22;;;9.70;99.90;;;;;;5072087;28;20048;-84
2022/01/03 10:01:34;;;;;;;26.73;4.43;;;10.10;99.90;;;;;;5071939;28;20043;-84
2022/01/03 10:04:19;;;;;;;24.73;5.03;;;9.70;99.90;;;;;;5057111;28;20061;-83
2022/01/03 10:07:07;;;;;;;26.92;5.25;;;9.70;99.90;;;;;;5042094;28;20253;-83
2022/01/03 10:09:53;;;;;;;27.50;4.95;;;9.70;99.90;;;;;;5051877;28;20051;-83
2022/01/03 10:12:38;;;;;;;25.85;4.22;;;9.80;99.90;;;;;;5037589;28;20079;-83
2022/01/03 10:15:23;;;;;;;27.92;5.72;;;10.30;99.90;;;;;;5052560;28;20048;-83
2022/01/03 10:18:17;;;;;;;32.25;5.72;;;9.80;99.90;;;;;;5052136;28;20452;-83
2022/01/03 10:21:02;;;;;;;30.00;4.72;;;9.80;99.90;;;;;;5051503;28;20072;-82
2022/01/03 10:23:57;;;;;;;27.77;4.85;;;9.80;99.90;;;;;;5052458;28;20122;-83
2022/01/03 10:26:50;;;;;;;22.40;4.70;;;9.80;99.90;;;;;;5051655;28;20052;-82
2022/01/03 10:29:37;;;;;;;19.63;4.05;;;9.80;99.90;;;;;;5072450;28;20086;-82
2022/01/03 10:32:27;;;;;;;27.30;4.50;;;9.80;99.90;;;;;;5072066;28;20124;-83
2022/01/03 10:35:16;;;;;;;26.17;5.35;;;9.80;99.90;;;;;;5074039;28;20039;-83
2022/01/03 10:38:01;;;;;;;25.90;4.63;;;10.10;99.90;;;;;;5071691;28;20122;-83
2022/01/03 10:40:45;;;;;;;23.90;5.65;;;9.80;99.90;;;;;;5072146;28;20044;-83
2022/01/03 10:43:34;;;;;;;28.20;5.90;;;9.90;99.90;;;;;;5057032;28;20043;-83
2022/01/03 10:46:30;;;;;;;29.65;5.65;;;9.90;99.90;;;;;;5072039;28;20046;-83
2022/01/03 10:49:18;;;;;;;28.63;6.50;;;9.90;99.90;;;;;;5055994;28;20112;-83
2022/01/03 10:52:28;;;;;;;22.42;5.22;;;9.90;99.90;;;;;;5071455;28;20538;-84
2022/01/03 10:55:20;;;;;;;24.35;5.30;;;9.90;99.90;;;;;;5071757;28;20416;-82
2022/01/03 10:58:06;;;;;;;29.05;5.13;;;9.90;99.90;;;;;;5071381;28;20070;-83
2022/01/03 11:00:51;;;;;;;29.15;7.03;;;10.00;99.90;;;;;;5071273;28;20066;-82
2022/01/03 11:03:43;;;;;;;28.92;5.85;;;10.00;99.90;;;;;;5056715;28;20503;-83
2022/01/03 11:12:25;;;;;;;30.80;7.05;;;10.00;99.90;;;;;;5074410;28;20059;-83
2022/01/03 11:15:20;;;;;;;23.73;5.78;;;10.00;99.90;;;;;;5043245;28;20820;-83
2022/01/03 11:18:24;;;;;;;20.38;4.82;;;10.00;99.90;;;;;;5064500;28;20133;-83
2022/01/03 11:21:15;;;;;;;26.80;5.22;;;10.00;99.90;;;;;;5074437;28;20090;-82
2022/01/03 11:23:59;;;;;;;36.78;7.53;;;10.00;99.90;;;;;;5075046;28;20070;-82
2022/01/03 11:26:48;;;;;;;28.02;5.97;;;10.00;99.90;;;;;;5078693;28;20086;-82
2022/01/03 11:29:33;;;;;;;24.50;5.20;;;10.00;99.90;;;;;;5061721;28;20040;-82
2022/01/03 11:32:17;;;;;;;31.00;5.15;;;10.00;99.90;;;;;;5075257;28;20047;-83
2022/01/03 11:35:02;;;;;;;20.95;3.88;;;9.90;99.90;;;;;;5059271;28;20130;-83
2022/01/03 11:37:48;;;;;;;16.65;4.00;;;9.90;99.90;;;;;;5064338;28;20090;-82
2022/01/03 11:40:32;;;;;;;21.10;3.58;;;9.90;99.90;;;;;;5074880;28;20523;-83
2022/01/03 11:43:17;;;;;;;21.63;3.83;;;9.90;99.90;;;;;;5058776;28;20404;-83
2022/01/03 11:46:02;;;;;;;21.58;5.22;;;10.00;99.90;;;;;;5074264;28;20038;-82
2022/01/03 11:48:46;;;;;;;28.60;5.18;;;9.90;99.90;;;;;;5074574;28;20120;-82
2022/01/03 11:51:34;;;;;;;20.95;3.88;;;10.00;99.90;;;;;;5074678;28;20043;-83
2022/01/03 11:54:20;;;;;;;26.40;4.63;;;10.00;99.90;;;;;;5074210;28;20043;-82
2022/01/03 11:57:11;;;;;;;21.55;4.93;;;10.10;99.90;;;;;;5074302;28;20045;-82
2022/01/03 12:03:36;;;;;;;26.08;4.10;;;10.30;99.90;;;;;;5058765;28;20087;-82
2022/01/03 12:06:33;;;;;;;23.42;3.97;;;10.30;99.90;;;;;;5054056;28;20055;-82
2022/01/03 12:09:28;;;;;;;20.33;4.72;;;10.40;99.90;;;;;;5038888;28;20357;-83
2022/01/03 12:12:33;;;;;;;23.77;4.30;;;10.30;99.90;;;;;;5026244;28;20044;-82
2022/01/03 12:15:37;;;;;;;29.33;4.63;;;10.40;99.90;;;;;;5038667;28;20099;-82
2022/01/03 12:18:28;;;;;;;24.58;4.13;;;10.40;99.90;;;;;;5053875;28;20402;-82
2022/01/03 12:21:48;;;;;;;24.55;4.03;;;10.40;99.90;;;;;;5053730;28;20092;-84
2022/01/03 12:24:32;;;;;;;26.15;5.38;;;10.50;99.90;;;;;;5053626;28;20075;-81
2022/01/03 12:27:16;;;;;;;27.02;4.63;;;10.50;99.90;;;;;;5059588;28;20039;-81
2022/01/03 12:30:05;;;;;;;24.63;5.00;;;10.50;99.90;;;;;;5067711;28;20113;-81
2022/01/03 12:33:10;;;;;;;21.73;4.88;;;10.60;99.90;;;;;;5058419;28;20120;-81
2022/01/03 12:36:16;;;;;;;27.40;5.07;;;10.60;99.90;;;;;;5073900;28;20094;-81
2022/01/03 12:39:06;;;;;;;23.85;4.97;;;10.60;99.90;;;;;;5073859;28;20102;-82
2022/01/03 12:41:52;;;;;;;23.63;4.72;;;10.60;99.90;;;;;;5058735;28;20047;-81
2022/01/03 12:44:49;;;;;;;26.27;6.15;;;10.50;99.90;;;;;;5073732;28;20085;-81
2022/01/03 12:47:38;;;;;;;25.25;5.78;;;10.60;99.90;;;;;;5073711;28;20078;-81
2022/01/03 12:50:29;;;;;;;23.33;4.97;;;10.60;99.90;;;;;;5073178;28;20044;-84
2022/01/03 12:53:31;;;;;;;25.25;4.85;;;10.60;99.90;;;;;;5073132;28;20044;-82
2022/01/03 12:56:26;;;;;;;23.67;4.22;;;10.50;99.90;;;;;;5039519;28;20183;-82
2022/01/03 12:59:12;;;;;;;22.45;4.63;;;10.50;99.90;;;;;;5053014;28;20091;-81
2022/01/03 13:02:23;;;;;;;21.13;4.93;;;10.50;99.90;;;;;;5053479;28;20441;-81
2022/01/03 13:05:11;;;;;;;22.42;4.40;;;10.50;99.90;;;;;;5052963;28;20087;-81
2022/01/03 13:07:55;;;;;;;25.35;5.18;;;10.40;99.90;;;;;;5053416;28;20043;-82
2022/01/03 13:10:39;;;;;;;21.63;4.32;;;10.40;99.90;;;;;;5053313;28;20122;-81
2022/01/03 13:13:24;;;;;;;;;;;10.40;99.90;;;;;;5039068;28;20105;-82
2022/01/03 13:16:17;;;;;;;22.63;4.55;;;10.30;99.90;;;;;;5072623;28;19938;-81
2022/01/03 13:19:06;;;;;;;22.52;5.07;;;10.30;99.90;;;;;;5072528;28;20044;-80
2022/01/03 13:21:55;;;;;;;24.10;5.68;;;10.30;99.90;;;;;;5052306;28;20052;-80
2022/01/03 13:24:43;;;;;;;29.08;4.72;;;10.30;99.90;;;;;;5067852;28;20047;-81
2022/01/03 13:27:28;;;;;;;28.92;4.28;;;10.30;99.90;;;;;;5048367;28;20428;-81
2022/01/03 13:30:12;;;;;;;29.05;5.22;;;10.30;99.90;;;;;;5053524;28;20521;-81
2022/01/03 13:32:56;;;;;;;;;;;10.30;99.90;;;;;;5053103;28;20496;-81
2022/01/03 13:35:40;;;;;;;19.33;4.75;;;10.30;99.90;;;;;;5062103;28;20324;-81
2022/01/03 13:38:24;;;;;;;32.90;5.88;;;10.30;99.90;;;;;;5055292;28;20098;-81
2022/01/03 13:41:14;;;;;;;29.45;6.05;;;10.30;99.90;;;;;;5068686;28;20063;-81
2022/01/03 13:43:59;;;;;;;19.60;4.53;;;10.30;99.90;;;;;;5057761;28;20048;-81
2022/01/03 13:50:01;;;;;;;23.20;5.22;;;10.30;99.90;;;;;;5052546;28;20122;-81
2022/01/03 13:52:48;;;;;;;41.63;5.68;;;10.30;99.90;;;;;;5052404;28;20102;-81
2022/01/03 13:55:34;;;;;;;27.05;5.75;;;10.30;99.90;;;;;;5037067;28;20039;-81
2022/01/03 13:58:18;;;;;;;28.05;6.53;;;10.30;99.90;;;;;;5052024;28;20090;-81
2022/01/03 14:01:05;;;;;;;30.20;5.03;;;10.30;99.90;;;;;;5052612;28;20539;-81
2022/01/03 14:03:56;;;;;;;24.10;4.07;;;10.30;99.90;;;;;;5052404;28;20052;-81
2022/01/03 14:06:40;;;;;;;28.10;5.28;;;10.30;99.90;;;;;;5052394;28;20115;-81
2022/01/03 14:09:24;;;;;;;27.83;5.57;;;10.20;99.90;;;;;;5036775;28;20093;-81
2022/01/03 14:12:13;;;;;;;;;;;10.20;99.90;;;;;;5037608;28;20043;-81
2022/01/03 14:15:03;;;;;;;25.65;5.15;;;10.20;99.90;;;;;;5052379;28;19924;-81
2022/01/03 14:17:49;;;;;;;36.55;5.03;;;10.20;99.90;;;;;;5056729;28;20511;-81
2022/01/03 14:20:34;;;;;;;28.98;6.55;;;10.20;99.90;;;;;;5071881;28;20040;-81
2022/01/03 14:23:18;;;;;;;24.90;4.93;;;10.20;99.90;;;;;;5069846;28;20163;-81
2022/01/03 14:26:14;;;;;;;30.70;4.40;;;10.20;99.90;;;;;;5056644;28;20458;-81
2022/01/03 14:29:11;;;;;;;26.92;4.45;;;10.20;99.90;;;;;;5072090;28;20035;-81
2022/01/03 14:31:57;;;;;;;27.10;5.80;;;10.20;99.90;;;;;;5072136;28;20484;-81
2022/01/03 14:34:52;;;;;;;31.77;5.70;;;10.20;99.90;;;;;;5071135;28;20396;-81
2022/01/03 14:37:37;;;;;;;31.08;5.68;;;10.20;99.90;;;;;;5056611;28;20391;-80
2022/01/03 14:40:46;;;;;;;38.38;6.10;;;10.20;99.90;;;;;;5071759;28;20388;-80
2022/01/03 14:43:30;;;;;;;21.70;4.45;;;10.20;99.90;;;;;;5056554;28;20085;-80
2022/01/03 14:46:15;;;;;;;28.88;6.05;;;10.10;99.90;;;;;;5072855;28;20467;-81
2022/01/03 14:49:00;;;;;;;31.23;5.47;;;10.10;99.90;;;;;;5075847;28;20089;-80
2022/01/03 14:51:47;;;;;;;43.63;6.88;;;10.00;99.90;;;;;;5075325;28;20591;-81
2022/01/03 14:54:33;;;;;;;30.73;5.97;;;10.00;99.90;;;;;;5075445;28;20043;-81
2022/01/03 14:57:26;;;;;;;30.58;5.63;;;10.00;99.90;;;;;;5060618;28;20044;-81
2022/01/03 15:00:13;;;;;;;34.33;5.90;;;9.90;99.90;;;;;;5074788;28;20098;-81